sensor_id;sensor_type;location;lat;lon;timestamp;P1;durP1;ratioP1;P2;durP2;ratioP2
45944;SDS011;31655;48.972;10.686;2023-07-29T00:01:18;14.50;;;10.18;;
45944;SDS011;31655;48.972;10.686;2023-07-29T00:03:44;15.63;;;10.52;;
45944;SDS011;31655;48.972;10.686;2023-07-29T00:06:10;15.85;;;11.00;;
45944;SDS011;31655;48.972;10.686;2023-07-29T00:08:36;16.92;;;10.82;;
45944;SDS011;31655;48.972;10.686;2023-07-29T00:11:02;15.60;;;11.43;;
45944;SDS011;31655;48.972;10.686;2023-07-29T00:13:28;15.65;;;10.40;;
45944;SDS011;31655;48.972;10.686;2023-07-29T00:15:54;15.90;;;11.05;;
45944;SDS011;31655;48.972;10.686;2023-07-29T00:18:21;19.35;;;11.60;;
45944;SDS011;31655;48.972;10.686;2023-07-29T00:20:47;17.42;;;11.82;;
45944;SDS011;31655;48.972;10.686;2023-07-29T00:23:13;16.63;;;11.35;;
45944;SDS011;31655;48.972;10.686;2023-07-29T00:25:39;18.13;;;11.20;;
45944;SDS011;31655;48.972;10.686;2023-07-29T00:28:05;19.30;;;12.30;;
45944;SDS011;31655;48.972;10.686;2023-07-29T00:30:31;16.85;;;11.05;;
45944;SDS011;31655;48.972;10.686;2023-07-29T00:32:57;17.70;;;11.23;;
45944;SDS011;31655;48.972;10.686;2023-07-29T00:35:23;17.00;;;11.40;;
45944;SDS011;31655;48.972;10.686;2023-07-29T00:37:49;19.23;;;11.43;;
45944;SDS011;31655;48.972;10.686;2023-07-29T00:40:15;21.83;;;13.82;;
45944;SDS011;31655;48.972;10.686;2023-07-29T00:42:47;23.33;;;14.05;;
45944;SDS011;31655;48.972;10.686;2023-07-29T00:45:13;19.73;;;14.32;;
45944;SDS011;31655;48.972;10.686;2023-07-29T00:47:39;27.92;;;15.07;;
45944;SDS011;31655;48.972;10.686;2023-07-29T00:50:05;22.65;;;14.90;;
45944;SDS011;31655;48.972;10.686;2023-07-29T00:52:34;21.23;;;13.50;;
45944;SDS011;31655;48.972;10.686;2023-07-29T00:55:00;21.30;;;13.90;;
45944;SDS011;31655;48.972;10.686;2023-07-29T00:57:26;21.33;;;14.90;;
45944;SDS011;31655;48.972;10.686;2023-07-29T00:59:53;20.38;;;13.63;;
45944;SDS011;31655;48.972;10.686;2023-07-29T01:02:19;20.05;;;14.05;;
45944;SDS011;31655;48.972;10.686;2023-07-29T01:04:45;19.58;;;13.32;;
45944;SDS011;31655;48.972;10.686;2023-07-29T01:07:22;21.45;;;14.20;;
45944;SDS011;31655;48.972;10.686;2023-07-29T01:09:56;21.35;;;14.02;;
45944;SDS011;31655;48.972;10.686;2023-07-29T01:12:40;25.02;;;14.68;;
45944;SDS011;31655;48.972;10.686;2023-07-29T01:15:22;26.73;;;14.48;;
45944;SDS011;31655;48.972;10.686;2023-07-29T01:18:06;26.27;;;14.98;;
45944;SDS011;31655;48.972;10.686;2023-07-29T01:20:37;23.95;;;14.32;;
45944;SDS011;31655;48.972;10.686;2023-07-29T01:23:08;22.80;;;13.75;;
45944;SDS011;31655;48.972;10.686;2023-07-29T01:25:34;27.90;;;15.27;;
45944;SDS011;31655;48.972;10.686;2023-07-29T01:28:00;26.20;;;15.93;;
45944;SDS011;31655;48.972;10.686;2023-07-29T01:30:29;27.05;;;15.55;;
45944;SDS011;31655;48.972;10.686;2023-07-29T01:35:24;25.40;;;14.25;;
45944;SDS011;31655;48.972;10.686;2023-07-29T01:38:01;20.63;;;12.95;;
45944;SDS011;31655;48.972;10.686;2023-07-29T01:40:31;21.98;;;12.98;;
45944;SDS011;31655;48.972;10.686;2023-07-29T01:42:58;19.42;;;12.65;;
45944;SDS011;31655;48.972;10.686;2023-07-29T01:45:25;25.05;;;13.35;;
45944;SDS011;31655;48.972;10.686;2023-07-29T01:47:51;21.80;;;13.55;;
45944;SDS011;31655;48.972;10.686;2023-07-29T01:50:17;21.55;;;13.05;;
45944;SDS011;31655;48.972;10.686;2023-07-29T01:52:43;23.35;;;13.50;;
45944;SDS011;31655;48.972;10.686;2023-07-29T01:55:09;22.38;;;13.20;;
45944;SDS011;31655;48.972;10.686;2023-07-29T01:57:35;20.83;;;12.88;;
45944;SDS011;31655;48.972;10.686;2023-07-29T02:00:01;22.17;;;12.18;;
45944;SDS011;31655;48.972;10.686;2023-07-29T02:02:28;18.83;;;10.93;;
45944;SDS011;31655;48.972;10.686;2023-07-29T02:04:54;15.55;;;9.50;;
45944;SDS011;31655;48.972;10.686;2023-07-29T02:07:21;14.90;;;9.68;;
45944;SDS011;31655;48.972;10.686;2023-07-29T02:09:46;17.85;;;9.80;;
45944;SDS011;31655;48.972;10.686;2023-07-29T02:12:13;12.15;;;7.53;;
45944;SDS011;31655;48.972;10.686;2023-07-29T02:14:39;13.50;;;8.23;;
45944;SDS011;31655;48.972;10.686;2023-07-29T02:17:05;11.45;;;8.10;;
45944;SDS011;31655;48.972;10.686;2023-07-29T02:19:31;10.00;;;7.00;;
45944;SDS011;31655;48.972;10.686;2023-07-29T02:21:57;12.38;;;6.00;;
45944;SDS011;31655;48.972;10.686;2023-07-29T02:24:23;11.00;;;6.03;;
45944;SDS011;31655;48.972;10.686;2023-07-29T02:26:49;6.88;;;5.38;;
45944;SDS011;31655;48.972;10.686;2023-07-29T02:29:15;7.78;;;5.03;;
45944;SDS011;31655;48.972;10.686;2023-07-29T02:31:40;8.23;;;4.78;;
45944;SDS011;31655;48.972;10.686;2023-07-29T02:34:06;7.80;;;4.40;;
45944;SDS011;31655;48.972;10.686;2023-07-29T02:36:32;7.15;;;4.38;;
45944;SDS011;31655;48.972;10.686;2023-07-29T02:38:58;5.07;;;4.32;;
45944;SDS011;31655;48.972;10.686;2023-07-29T02:41:25;6.80;;;4.18;;
45944;SDS011;31655;48.972;10.686;2023-07-29T02:43:51;7.43;;;5.53;;
45944;SDS011;31655;48.972;10.686;2023-07-29T02:46:16;12.93;;;6.43;;
45944;SDS011;31655;48.972;10.686;2023-07-29T02:48:44;12.05;;;7.00;;
45944;SDS011;31655;48.972;10.686;2023-07-29T02:51:09;9.30;;;5.35;;
45944;SDS011;31655;48.972;10.686;2023-07-29T02:53:35;9.73;;;6.45;;
45944;SDS011;31655;48.972;10.686;2023-07-29T02:56:02;10.07;;;6.85;;
45944;SDS011;31655;48.972;10.686;2023-07-29T02:58:28;8.95;;;6.20;;
45944;SDS011;31655;48.972;10.686;2023-07-29T03:00:59;9.95;;;5.50;;
45944;SDS011;31655;48.972;10.686;2023-07-29T03:03:29;12.00;;;5.53;;
45944;SDS011;31655;48.972;10.686;2023-07-29T03:06:05;11.02;;;4.80;;
45944;SDS011;31655;48.972;10.686;2023-07-29T03:08:32;8.20;;;4.80;;
45944;SDS011;31655;48.972;10.686;2023-07-29T03:10:58;7.18;;;4.57;;
45944;SDS011;31655;48.972;10.686;2023-07-29T03:13:24;9.55;;;4.97;;
45944;SDS011;31655;48.972;10.686;2023-07-29T03:15:50;9.60;;;5.50;;
45944;SDS011;31655;48.972;10.686;2023-07-29T03:18:16;9.40;;;5.82;;
45944;SDS011;31655;48.972;10.686;2023-07-29T03:20:42;9.00;;;5.57;;
45944;SDS011;31655;48.972;10.686;2023-07-29T03:23:08;6.18;;;5.30;;
45944;SDS011;31655;48.972;10.686;2023-07-29T03:25:34;7.03;;;5.05;;
45944;SDS011;31655;48.972;10.686;2023-07-29T03:28:00;9.27;;;5.82;;
45944;SDS011;31655;48.972;10.686;2023-07-29T03:30:26;10.45;;;5.95;;
45944;SDS011;31655;48.972;10.686;2023-07-29T03:32:52;8.60;;;6.40;;
45944;SDS011;31655;48.972;10.686;2023-07-29T03:35:18;10.23;;;5.78;;
45944;SDS011;31655;48.972;10.686;2023-07-29T03:37:44;11.30;;;6.53;;
45944;SDS011;31655;48.972;10.686;2023-07-29T03:40:10;11.95;;;6.30;;
45944;SDS011;31655;48.972;10.686;2023-07-29T03:42:36;9.70;;;6.80;;
45944;SDS011;31655;48.972;10.686;2023-07-29T03:45:02;9.25;;;6.32;;
45944;SDS011;31655;48.972;10.686;2023-07-29T03:47:28;9.65;;;7.03;;
45944;SDS011;31655;48.972;10.686;2023-07-29T03:49:54;8.95;;;6.45;;
45944;SDS011;31655;48.972;10.686;2023-07-29T03:52:20;12.68;;;6.95;;
45944;SDS011;31655;48.972;10.686;2023-07-29T03:54:46;8.80;;;6.50;;
45944;SDS011;31655;48.972;10.686;2023-07-29T03:57:12;16.30;;;8.15;;
45944;SDS011;31655;48.972;10.686;2023-07-29T03:59:38;10.25;;;7.22;;
45944;SDS011;31655;48.972;10.686;2023-07-29T04:02:04;10.75;;;7.78;;
45944;SDS011;31655;48.972;10.686;2023-07-29T04:04:30;12.32;;;7.80;;
45944;SDS011;31655;48.972;10.686;2023-07-29T04:06:56;12.55;;;7.18;;
45944;SDS011;31655;48.972;10.686;2023-07-29T04:09:22;11.18;;;8.63;;
45944;SDS011;31655;48.972;10.686;2023-07-29T04:11:48;14.20;;;7.93;;
45944;SDS011;31655;48.972;10.686;2023-07-29T04:14:14;11.27;;;8.52;;
45944;SDS011;31655;48.972;10.686;2023-07-29T04:16:40;12.18;;;8.25;;
45944;SDS011;31655;48.972;10.686;2023-07-29T04:19:06;12.80;;;7.97;;
45944;SDS011;31655;48.972;10.686;2023-07-29T04:21:32;15.35;;;10.20;;
45944;SDS011;31655;48.972;10.686;2023-07-29T04:23:58;13.90;;;9.50;;
45944;SDS011;31655;48.972;10.686;2023-07-29T04:26:24;15.43;;;10.18;;
45944;SDS011;31655;48.972;10.686;2023-07-29T04:28:50;16.55;;;10.35;;
45944;SDS011;31655;48.972;10.686;2023-07-29T04:31:15;17.13;;;10.50;;
45944;SDS011;31655;48.972;10.686;2023-07-29T04:33:41;21.38;;;10.38;;
45944;SDS011;31655;48.972;10.686;2023-07-29T04:36:07;14.77;;;9.73;;
45944;SDS011;31655;48.972;10.686;2023-07-29T04:38:33;15.43;;;10.35;;
45944;SDS011;31655;48.972;10.686;2023-07-29T04:40:59;12.25;;;8.82;;
45944;SDS011;31655;48.972;10.686;2023-07-29T04:43:32;12.35;;;9.30;;
45944;SDS011;31655;48.972;10.686;2023-07-29T04:45:58;11.90;;;8.38;;
45944;SDS011;31655;48.972;10.686;2023-07-29T04:48:24;11.35;;;7.93;;
45944;SDS011;31655;48.972;10.686;2023-07-29T04:50:51;12.55;;;8.20;;
45944;SDS011;31655;48.972;10.686;2023-07-29T04:53:16;13.05;;;7.68;;
45944;SDS011;31655;48.972;10.686;2023-07-29T04:55:42;13.82;;;8.57;;
45944;SDS011;31655;48.972;10.686;2023-07-29T04:58:09;13.68;;;8.48;;
45944;SDS011;31655;48.972;10.686;2023-07-29T05:00:35;9.30;;;6.03;;
45944;SDS011;31655;48.972;10.686;2023-07-29T05:03:01;8.98;;;6.68;;
45944;SDS011;31655;48.972;10.686;2023-07-29T05:05:28;13.30;;;7.22;;
45944;SDS011;31655;48.972;10.686;2023-07-29T05:07:54;10.35;;;6.93;;
45944;SDS011;31655;48.972;10.686;2023-07-29T05:10:20;11.82;;;6.95;;
45944;SDS011;31655;48.972;10.686;2023-07-29T05:12:46;11.68;;;6.65;;
45944;SDS011;31655;48.972;10.686;2023-07-29T05:15:12;9.52;;;7.10;;
45944;SDS011;31655;48.972;10.686;2023-07-29T05:17:38;11.02;;;6.72;;
45944;SDS011;31655;48.972;10.686;2023-07-29T05:20:04;10.73;;;7.28;;
45944;SDS011;31655;48.972;10.686;2023-07-29T05:22:30;10.38;;;7.35;;
45944;SDS011;31655;48.972;10.686;2023-07-29T05:24:56;11.88;;;7.20;;
45944;SDS011;31655;48.972;10.686;2023-07-29T05:27:22;12.70;;;7.90;;
45944;SDS011;31655;48.972;10.686;2023-07-29T05:29:48;13.07;;;9.13;;
45944;SDS011;31655;48.972;10.686;2023-07-29T05:32:14;17.77;;;8.63;;
45944;SDS011;31655;48.972;10.686;2023-07-29T05:34:40;14.27;;;9.38;;
45944;SDS011;31655;48.972;10.686;2023-07-29T05:37:06;25.05;;;10.52;;
45944;SDS011;31655;48.972;10.686;2023-07-29T05:39:32;17.80;;;9.85;;
45944;SDS011;31655;48.972;10.686;2023-07-29T05:41:58;13.82;;;9.73;;
45944;SDS011;31655;48.972;10.686;2023-07-29T05:44:27;14.88;;;10.48;;
45944;SDS011;31655;48.972;10.686;2023-07-29T05:46:53;19.65;;;9.95;;
45944;SDS011;31655;48.972;10.686;2023-07-29T05:49:19;18.67;;;11.32;;
45944;SDS011;31655;48.972;10.686;2023-07-29T05:51:45;15.32;;;11.23;;
45944;SDS011;31655;48.972;10.686;2023-07-29T05:54:11;20.50;;;11.20;;
45944;SDS011;31655;48.972;10.686;2023-07-29T05:56:37;15.98;;;11.32;;
45944;SDS011;31655;48.972;10.686;2023-07-29T05:59:03;18.35;;;12.02;;
45944;SDS011;31655;48.972;10.686;2023-07-29T06:01:29;19.02;;;11.68;;
45944;SDS011;31655;48.972;10.686;2023-07-29T06:03:55;14.98;;;11.30;;
45944;SDS011;31655;48.972;10.686;2023-07-29T06:06:20;16.02;;;11.45;;
45944;SDS011;31655;48.972;10.686;2023-07-29T06:08:48;14.57;;;9.80;;
45944;SDS011;31655;48.972;10.686;2023-07-29T06:11:14;17.27;;;10.75;;
45944;SDS011;31655;48.972;10.686;2023-07-29T06:13:40;19.75;;;10.95;;
45944;SDS011;31655;48.972;10.686;2023-07-29T06:16:06;13.00;;;10.23;;
45944;SDS011;31655;48.972;10.686;2023-07-29T06:18:32;13.50;;;10.07;;
45944;SDS011;31655;48.972;10.686;2023-07-29T06:20:58;16.15;;;9.75;;
45944;SDS011;31655;48.972;10.686;2023-07-29T06:23:24;10.75;;;8.27;;
45944;SDS011;31655;48.972;10.686;2023-07-29T06:25:50;15.45;;;9.43;;
45944;SDS011;31655;48.972;10.686;2023-07-29T06:28:16;20.05;;;10.65;;
45944;SDS011;31655;48.972;10.686;2023-07-29T06:30:41;17.35;;;10.70;;
45944;SDS011;31655;48.972;10.686;2023-07-29T06:33:07;20.80;;;10.98;;
45944;SDS011;31655;48.972;10.686;2023-07-29T06:35:34;17.50;;;11.32;;
45944;SDS011;31655;48.972;10.686;2023-07-29T06:38:00;15.50;;;10.55;;
45944;SDS011;31655;48.972;10.686;2023-07-29T06:40:26;14.90;;;10.85;;
45944;SDS011;31655;48.972;10.686;2023-07-29T06:42:52;20.15;;;12.18;;
45944;SDS011;31655;48.972;10.686;2023-07-29T06:45:18;16.05;;;11.45;;
45944;SDS011;31655;48.972;10.686;2023-07-29T06:47:44;17.67;;;12.95;;
45944;SDS011;31655;48.972;10.686;2023-07-29T06:50:10;17.45;;;11.70;;
45944;SDS011;31655;48.972;10.686;2023-07-29T06:52:36;23.25;;;14.02;;
45944;SDS011;31655;48.972;10.686;2023-07-29T06:55:03;19.65;;;11.50;;
45944;SDS011;31655;48.972;10.686;2023-07-29T06:57:29;18.80;;;11.95;;
45944;SDS011;31655;48.972;10.686;2023-07-29T06:59:55;19.75;;;12.07;;
45944;SDS011;31655;48.972;10.686;2023-07-29T07:02:21;18.13;;;11.55;;
45944;SDS011;31655;48.972;10.686;2023-07-29T07:04:47;14.98;;;10.32;;
45944;SDS011;31655;48.972;10.686;2023-07-29T07:07:12;14.15;;;10.18;;
45944;SDS011;31655;48.972;10.686;2023-07-29T07:09:38;15.80;;;10.50;;
45944;SDS011;31655;48.972;10.686;2023-07-29T07:12:04;13.13;;;9.55;;
45944;SDS011;31655;48.972;10.686;2023-07-29T07:14:30;16.52;;;10.30;;
45944;SDS011;31655;48.972;10.686;2023-07-29T07:16:56;15.18;;;9.77;;
45944;SDS011;31655;48.972;10.686;2023-07-29T07:19:22;17.65;;;10.20;;
45944;SDS011;31655;48.972;10.686;2023-07-29T07:21:48;17.27;;;9.25;;
45944;SDS011;31655;48.972;10.686;2023-07-29T07:24:14;14.20;;;10.40;;
45944;SDS011;31655;48.972;10.686;2023-07-29T07:26:40;14.30;;;8.82;;
45944;SDS011;31655;48.972;10.686;2023-07-29T07:29:06;13.05;;;8.98;;
45944;SDS011;31655;48.972;10.686;2023-07-29T07:31:32;13.60;;;10.23;;
45944;SDS011;31655;48.972;10.686;2023-07-29T07:33:58;13.70;;;9.02;;
45944;SDS011;31655;48.972;10.686;2023-07-29T07:36:25;12.70;;;7.90;;
45944;SDS011;31655;48.972;10.686;2023-07-29T07:38:51;12.50;;;9.07;;
45944;SDS011;31655;48.972;10.686;2023-07-29T07:41:17;12.60;;;8.00;;
45944;SDS011;31655;48.972;10.686;2023-07-29T07:43:43;8.90;;;6.30;;
45944;SDS011;31655;48.972;10.686;2023-07-29T07:46:09;9.57;;;6.97;;
45944;SDS011;31655;48.972;10.686;2023-07-29T07:48:35;13.38;;;6.13;;
45944;SDS011;31655;48.972;10.686;2023-07-29T07:51:09;8.10;;;4.15;;
45944;SDS011;31655;48.972;10.686;2023-07-29T07:53:38;5.75;;;4.18;;
45944;SDS011;31655;48.972;10.686;2023-07-29T07:56:05;6.47;;;4.90;;
45944;SDS011;31655;48.972;10.686;2023-07-29T07:58:31;5.95;;;4.10;;
45944;SDS011;31655;48.972;10.686;2023-07-29T08:01:03;5.22;;;3.95;;
45944;SDS011;31655;48.972;10.686;2023-07-29T08:03:30;6.07;;;4.45;;
45944;SDS011;31655;48.972;10.686;2023-07-29T08:05:56;4.85;;;3.88;;
45944;SDS011;31655;48.972;10.686;2023-07-29T08:08:22;6.55;;;3.67;;
45944;SDS011;31655;48.972;10.686;2023-07-29T08:10:48;3.83;;;3.28;;
45944;SDS011;31655;48.972;10.686;2023-07-29T08:13:14;4.30;;;3.10;;
45944;SDS011;31655;48.972;10.686;2023-07-29T08:15:40;7.80;;;3.15;;
45944;SDS011;31655;48.972;10.686;2023-07-29T08:18:06;4.82;;;2.92;;
45944;SDS011;31655;48.972;10.686;2023-07-29T08:20:32;4.05;;;3.33;;
45944;SDS011;31655;48.972;10.686;2023-07-29T08:22:58;4.38;;;2.88;;
45944;SDS011;31655;48.972;10.686;2023-07-29T08:25:24;5.97;;;2.80;;
45944;SDS011;31655;48.972;10.686;2023-07-29T08:27:49;3.60;;;2.88;;
45944;SDS011;31655;48.972;10.686;2023-07-29T08:30:15;4.18;;;3.08;;
45944;SDS011;31655;48.972;10.686;2023-07-29T08:32:43;4.28;;;3.40;;
45944;SDS011;31655;48.972;10.686;2023-07-29T08:35:09;10.02;;;4.20;;
45944;SDS011;31655;48.972;10.686;2023-07-29T08:37:35;4.57;;;4.18;;
45944;SDS011;31655;48.972;10.686;2023-07-29T08:40:01;4.38;;;3.47;;
45944;SDS011;31655;48.972;10.686;2023-07-29T08:42:29;6.05;;;3.85;;
45944;SDS011;31655;48.972;10.686;2023-07-29T08:44:57;6.60;;;4.50;;
45944;SDS011;31655;48.972;10.686;2023-07-29T08:47:36;5.32;;;4.22;;
45944;SDS011;31655;48.972;10.686;2023-07-29T08:50:02;7.90;;;5.20;;
45944;SDS011;31655;48.972;10.686;2023-07-29T08:52:29;7.80;;;4.65;;
45944;SDS011;31655;48.972;10.686;2023-07-29T08:54:57;7.25;;;4.20;;
45944;SDS011;31655;48.972;10.686;2023-07-29T08:57:23;4.90;;;3.95;;
45944;SDS011;31655;48.972;10.686;2023-07-29T08:59:49;12.07;;;5.07;;
45944;SDS011;31655;48.972;10.686;2023-07-29T09:02:15;9.27;;;5.50;;
45944;SDS011;31655;48.972;10.686;2023-07-29T09:04:41;7.32;;;4.40;;
45944;SDS011;31655;48.972;10.686;2023-07-29T09:07:07;6.55;;;5.05;;
45944;SDS011;31655;48.972;10.686;2023-07-29T09:09:33;6.38;;;4.55;;
45944;SDS011;31655;48.972;10.686;2023-07-29T09:11:59;5.38;;;4.13;;
45944;SDS011;31655;48.972;10.686;2023-07-29T09:14:25;6.53;;;3.85;;
45944;SDS011;31655;48.972;10.686;2023-07-29T09:16:51;5.35;;;3.88;;
45944;SDS011;31655;48.972;10.686;2023-07-29T09:19:16;4.60;;;3.33;;
45944;SDS011;31655;48.972;10.686;2023-07-29T09:21:42;9.35;;;3.55;;
45944;SDS011;31655;48.972;10.686;2023-07-29T09:24:08;6.60;;;3.28;;
45944;SDS011;31655;48.972;10.686;2023-07-29T09:26:35;3.60;;;3.03;;
45944;SDS011;31655;48.972;10.686;2023-07-29T09:29:01;4.45;;;2.70;;
45944;SDS011;31655;48.972;10.686;2023-07-29T09:31:27;5.20;;;2.75;;
45944;SDS011;31655;48.972;10.686;2023-07-29T09:33:57;6.63;;;2.17;;
45944;SDS011;31655;48.972;10.686;2023-07-29T09:36:24;2.90;;;2.38;;
45944;SDS011;31655;48.972;10.686;2023-07-29T09:38:54;4.10;;;2.50;;
45944;SDS011;31655;48.972;10.686;2023-07-29T09:41:21;4.45;;;2.88;;
45944;SDS011;31655;48.972;10.686;2023-07-29T09:43:48;3.40;;;2.67;;
45944;SDS011;31655;48.972;10.686;2023-07-29T09:46:22;4.20;;;2.80;;
45944;SDS011;31655;48.972;10.686;2023-07-29T09:48:49;3.83;;;2.92;;
45944;SDS011;31655;48.972;10.686;2023-07-29T09:51:15;6.72;;;3.25;;
45944;SDS011;31655;48.972;10.686;2023-07-29T09:53:42;3.03;;;2.38;;
45944;SDS011;31655;48.972;10.686;2023-07-29T09:56:09;5.05;;;2.72;;
45944;SDS011;31655;48.972;10.686;2023-07-29T09:58:35;3.72;;;3.33;;
45944;SDS011;31655;48.972;10.686;2023-07-29T10:01:03;3.53;;;2.17;;
45944;SDS011;31655;48.972;10.686;2023-07-29T10:03:29;3.60;;;1.63;;
45944;SDS011;31655;48.972;10.686;2023-07-29T10:05:59;3.47;;;2.35;;
45944;SDS011;31655;48.972;10.686;2023-07-29T10:08:31;3.10;;;1.70;;
45944;SDS011;31655;48.972;10.686;2023-07-29T10:11:00;2.22;;;1.55;;
45944;SDS011;31655;48.972;10.686;2023-07-29T10:13:26;2.63;;;1.58;;
45944;SDS011;31655;48.972;10.686;2023-07-29T10:15:56;1.90;;;1.70;;
45944;SDS011;31655;48.972;10.686;2023-07-29T10:18:22;2.70;;;1.70;;
45944;SDS011;31655;48.972;10.686;2023-07-29T10:20:49;1.55;;;1.45;;
45944;SDS011;31655;48.972;10.686;2023-07-29T10:23:17;2.55;;;1.65;;
45944;SDS011;31655;48.972;10.686;2023-07-29T10:25:46;4.78;;;1.90;;
45944;SDS011;31655;48.972;10.686;2023-07-29T10:28:15;3.40;;;1.55;;
45944;SDS011;31655;48.972;10.686;2023-07-29T10:30:43;1.80;;;1.45;;
45944;SDS011;31655;48.972;10.686;2023-07-29T10:33:09;2.97;;;1.23;;
45944;SDS011;31655;48.972;10.686;2023-07-29T10:35:35;3.33;;;1.30;;
45944;SDS011;31655;48.972;10.686;2023-07-29T10:38:02;1.90;;;1.55;;
45944;SDS011;31655;48.972;10.686;2023-07-29T10:40:50;3.67;;;1.17;;
45944;SDS011;31655;48.972;10.686;2023-07-29T10:43:27;1.33;;;1.23;;
45944;SDS011;31655;48.972;10.686;2023-07-29T10:45:56;2.75;;;1.92;;
45944;SDS011;31655;48.972;10.686;2023-07-29T10:48:39;3.58;;;2.13;;
45944;SDS011;31655;48.972;10.686;2023-07-29T10:53:57;5.15;;;1.55;;
45944;SDS011;31655;48.972;10.686;2023-07-29T11:01:38;2.38;;;1.77;;
45944;SDS011;31655;48.972;10.686;2023-07-29T11:17:34;1.33;;;1.20;;
45944;SDS011;31655;48.972;10.686;2023-07-29T11:20:01;2.88;;;1.27;;
45944;SDS011;31655;48.972;10.686;2023-07-29T11:22:28;1.98;;;1.25;;
45944;SDS011;31655;48.972;10.686;2023-07-29T11:24:54;1.95;;;1.65;;
45944;SDS011;31655;48.972;10.686;2023-07-29T11:27:20;2.70;;;1.70;;
45944;SDS011;31655;48.972;10.686;2023-07-29T11:29:46;1.40;;;1.30;;
45944;SDS011;31655;48.972;10.686;2023-07-29T11:32:12;2.05;;;1.83;;
45944;SDS011;31655;48.972;10.686;2023-07-29T11:34:38;3.25;;;2.13;;
45944;SDS011;31655;48.972;10.686;2023-07-29T11:37:09;9.57;;;2.00;;
45944;SDS011;31655;48.972;10.686;2023-07-29T11:39:42;4.05;;;2.05;;
45944;SDS011;31655;48.972;10.686;2023-07-29T11:42:12;2.47;;;1.88;;
45944;SDS011;31655;48.972;10.686;2023-07-29T11:44:39;3.75;;;2.78;;
45944;SDS011;31655;48.972;10.686;2023-07-29T11:47:08;2.97;;;2.50;;
45944;SDS011;31655;48.972;10.686;2023-07-29T11:49:35;2.67;;;2.20;;
45944;SDS011;31655;48.972;10.686;2023-07-29T11:52:05;3.72;;;2.10;;
45944;SDS011;31655;48.972;10.686;2023-07-29T11:54:35;2.63;;;2.42;;
45944;SDS011;31655;48.972;10.686;2023-07-29T11:57:06;2.83;;;2.58;;
45944;SDS011;31655;48.972;10.686;2023-07-29T11:59:33;4.95;;;2.33;;
45944;SDS011;31655;48.972;10.686;2023-07-29T12:02:00;4.13;;;1.95;;
45944;SDS011;31655;48.972;10.686;2023-07-29T12:04:28;2.75;;;2.10;;
45944;SDS011;31655;48.972;10.686;2023-07-29T12:06:54;3.22;;;1.75;;
45944;SDS011;31655;48.972;10.686;2023-07-29T12:09:21;2.28;;;2.08;;
45944;SDS011;31655;48.972;10.686;2023-07-29T12:11:47;4.13;;;2.00;;
45944;SDS011;31655;48.972;10.686;2023-07-29T12:14:13;3.67;;;1.88;;
45944;SDS011;31655;48.972;10.686;2023-07-29T12:16:42;2.08;;;1.73;;
45944;SDS011;31655;48.972;10.686;2023-07-29T12:19:11;2.53;;;2.28;;
45944;SDS011;31655;48.972;10.686;2023-07-29T12:21:38;3.33;;;2.28;;
45944;SDS011;31655;48.972;10.686;2023-07-29T12:24:04;3.83;;;2.53;;
45944;SDS011;31655;48.972;10.686;2023-07-29T12:26:30;11.52;;;3.35;;
45944;SDS011;31655;48.972;10.686;2023-07-29T12:28:56;4.35;;;2.40;;
45944;SDS011;31655;48.972;10.686;2023-07-29T12:31:30;4.82;;;2.17;;
45944;SDS011;31655;48.972;10.686;2023-07-29T12:33:57;3.47;;;2.03;;
45944;SDS011;31655;48.972;10.686;2023-07-29T12:36:27;5.50;;;1.70;;
45944;SDS011;31655;48.972;10.686;2023-07-29T12:39:04;4.88;;;1.65;;
45944;SDS011;31655;48.972;10.686;2023-07-29T12:41:30;3.45;;;1.17;;
45944;SDS011;31655;48.972;10.686;2023-07-29T12:43:56;4.18;;;0.90;;
45944;SDS011;31655;48.972;10.686;2023-07-29T12:46:22;1.52;;;1.00;;
45944;SDS011;31655;48.972;10.686;2023-07-29T12:48:48;1.65;;;1.08;;
45944;SDS011;31655;48.972;10.686;2023-07-29T12:51:14;1.70;;;1.00;;
45944;SDS011;31655;48.972;10.686;2023-07-29T12:53:40;1.90;;;1.02;;
45944;SDS011;31655;48.972;10.686;2023-07-29T12:56:06;2.15;;;1.35;;
45944;SDS011;31655;48.972;10.686;2023-07-29T12:58:31;1.00;;;0.90;;
45944;SDS011;31655;48.972;10.686;2023-07-29T13:00:57;1.48;;;0.85;;
45944;SDS011;31655;48.972;10.686;2023-07-29T13:03:23;1.80;;;0.73;;
45944;SDS011;31655;48.972;10.686;2023-07-29T13:05:49;3.25;;;1.33;;
45944;SDS011;31655;48.972;10.686;2023-07-29T13:08:15;1.42;;;1.08;;
45944;SDS011;31655;48.972;10.686;2023-07-29T13:10:41;1.40;;;1.20;;
45944;SDS011;31655;48.972;10.686;2023-07-29T13:13:07;2.13;;;1.10;;
45944;SDS011;31655;48.972;10.686;2023-07-29T13:15:34;1.90;;;1.10;;
45944;SDS011;31655;48.972;10.686;2023-07-29T13:18:00;2.13;;;1.20;;
45944;SDS011;31655;48.972;10.686;2023-07-29T13:20:26;1.80;;;1.42;;
45944;SDS011;31655;48.972;10.686;2023-07-29T13:22:52;1.42;;;1.15;;
45944;SDS011;31655;48.972;10.686;2023-07-29T13:25:18;1.10;;;1.00;;
45944;SDS011;31655;48.972;10.686;2023-07-29T13:27:44;1.35;;;1.08;;
45944;SDS011;31655;48.972;10.686;2023-07-29T13:30:10;1.20;;;1.10;;
45944;SDS011;31655;48.972;10.686;2023-07-29T13:32:36;6.47;;;1.13;;
45944;SDS011;31655;48.972;10.686;2023-07-29T13:35:02;2.15;;;1.05;;
45944;SDS011;31655;48.972;10.686;2023-07-29T13:37:28;1.65;;;1.20;;
45944;SDS011;31655;48.972;10.686;2023-07-29T13:39:54;1.20;;;1.10;;
45944;SDS011;31655;48.972;10.686;2023-07-29T13:42:20;2.00;;;1.17;;
45944;SDS011;31655;48.972;10.686;2023-07-29T13:44:46;1.20;;;1.10;;
45944;SDS011;31655;48.972;10.686;2023-07-29T13:47:12;1.20;;;1.10;;
45944;SDS011;31655;48.972;10.686;2023-07-29T13:49:38;3.00;;;1.50;;
45944;SDS011;31655;48.972;10.686;2023-07-29T13:52:04;1.88;;;1.48;;
45944;SDS011;31655;48.972;10.686;2023-07-29T13:54:30;1.70;;;1.38;;
45944;SDS011;31655;48.972;10.686;2023-07-29T13:56:56;1.70;;;1.48;;
45944;SDS011;31655;48.972;10.686;2023-07-29T13:59:22;1.67;;;1.50;;
45944;SDS011;31655;48.972;10.686;2023-07-29T14:01:48;1.33;;;1.10;;
45944;SDS011;31655;48.972;10.686;2023-07-29T14:04:13;2.17;;;1.58;;
45944;SDS011;31655;48.972;10.686;2023-07-29T14:06:39;1.55;;;1.45;;
45944;SDS011;31655;48.972;10.686;2023-07-29T14:09:05;1.77;;;1.20;;
45944;SDS011;31655;48.972;10.686;2023-07-29T14:11:31;3.20;;;1.55;;
45944;SDS011;31655;48.972;10.686;2023-07-29T14:13:57;1.90;;;1.65;;
45944;SDS011;31655;48.972;10.686;2023-07-29T14:16:23;2.08;;;1.80;;
45944;SDS011;31655;48.972;10.686;2023-07-29T14:18:49;4.63;;;2.08;;
45944;SDS011;31655;48.972;10.686;2023-07-29T14:21:15;2.00;;;1.80;;
45944;SDS011;31655;48.972;10.686;2023-07-29T14:23:41;2.60;;;1.70;;
45944;SDS011;31655;48.972;10.686;2023-07-29T14:26:07;5.13;;;1.85;;
45944;SDS011;31655;48.972;10.686;2023-07-29T14:28:34;2.40;;;2.17;;
45944;SDS011;31655;48.972;10.686;2023-07-29T14:31:00;2.88;;;2.08;;
45944;SDS011;31655;48.972;10.686;2023-07-29T14:33:26;3.95;;;2.40;;
45944;SDS011;31655;48.972;10.686;2023-07-29T14:35:53;4.20;;;2.15;;
45944;SDS011;31655;48.972;10.686;2023-07-29T14:38:19;2.28;;;1.75;;
45944;SDS011;31655;48.972;10.686;2023-07-29T14:40:47;1.80;;;1.33;;
45944;SDS011;31655;48.972;10.686;2023-07-29T14:43:13;3.00;;;1.90;;
45944;SDS011;31655;48.972;10.686;2023-07-29T14:45:39;4.20;;;1.98;;
45944;SDS011;31655;48.972;10.686;2023-07-29T14:48:04;1.90;;;1.80;;